Aviation Digital Data Service (ADDS)

Output produced by METARs form (0514 UTC 29 August 2014)
found at http://aviationweather.gov/adds/metars/
 
KSYR 282335Z 2900/2924 29008KT P6SM SCT050 
     FM290200 VRB03KT P6SM FEW050 
     FM291400 14005KT P6SM SKC